createdAt,value
2023-11-26T00:00:21.296Z,-0.89
2023-11-26T00:04:04.614Z,-0.81
2023-11-26T00:07:46.504Z,-0.74
2023-11-26T00:11:39.045Z,-0.68
2023-11-26T00:15:26.049Z,-0.61
2023-11-26T00:19:06.601Z,-0.56
2023-11-26T00:22:51.123Z,-0.52
2023-11-26T00:26:32.441Z,-0.47
2023-11-26T00:30:23.234Z,-0.43
2023-11-26T00:34:11.831Z,-0.44
2023-11-26T00:38:18.833Z,-0.47
2023-11-26T00:42:07.375Z,-0.55
2023-11-26T00:45:48.627Z,-0.63
2023-11-26T00:49:30.241Z,-0.66
2023-11-26T00:54:19.120Z,-0.68
2023-11-26T00:57:19.490Z,-0.71
2023-11-26T01:01:08.789Z,-0.71
2023-11-26T01:04:59.359Z,-0.72
2023-11-26T01:08:47.884Z,-0.76
2023-11-26T01:12:37.491Z,-0.76
2023-11-26T01:16:25.964Z,-0.75
2023-11-26T01:20:14.609Z,-0.72
2023-11-26T01:24:03.177Z,-0.71
2023-11-26T01:27:53.531Z,-0.73
2023-11-26T01:31:42.272Z,-0.73
2023-11-26T01:35:30.807Z,-0.71
2023-11-26T01:39:19.310Z,-0.69
2023-11-26T01:43:07.884Z,-0.66
2023-11-26T01:46:56.401Z,-0.64
2023-11-26T01:50:45.089Z,-0.65
2023-11-26T01:54:34.095Z,-0.68
2023-11-26T01:58:28.783Z,-0.67
2023-11-26T02:01:57.009Z,-0.71
2023-11-26T02:05:53.425Z,-0.71
2023-11-26T02:09:41.941Z,-0.73
2023-11-26T02:13:42.740Z,-0.74
2023-11-26T02:17:31.290Z,-0.78
2023-11-26T02:21:31.998Z,-0.82
2023-11-26T02:26:10.714Z,-0.86
2023-11-26T02:29:42.874Z,-0.90
2023-11-26T02:33:23.184Z,-0.89
2023-11-26T02:37:14.502Z,-0.89
2023-11-26T02:40:54.454Z,-0.88
2023-11-26T02:45:31.295Z,-0.86
2023-11-26T02:48:43.473Z,-0.85
2023-11-26T02:52:33.458Z,-0.84
2023-11-26T02:56:21.986Z,-0.80
2023-11-26T03:00:07.119Z,-0.80
2023-11-26T03:03:55.655Z,-0.80
2023-11-26T03:07:44.160Z,-0.79
2023-11-26T03:11:31.022Z,-0.78
2023-11-26T03:15:19.556Z,-0.76
2023-11-26T03:19:12.313Z,-0.74
2023-11-26T03:23:00.855Z,-0.73
2023-11-26T03:26:27.783Z,-0.71
2023-11-26T03:30:20.051Z,-0.71
2023-11-26T03:34:08.538Z,-0.71
2023-11-26T03:37:48.908Z,-0.69
2023-11-26T03:41:29.242Z,-0.67
2023-11-26T03:45:17.788Z,-0.67
2023-11-26T03:49:06.409Z,-0.67
2023-11-26T03:52:54.967Z,-0.68
2023-11-26T03:56:44.628Z,-0.67
2023-11-26T04:00:33.195Z,-0.68
2023-11-26T04:04:20.680Z,-0.70
2023-11-26T04:08:10.648Z,-0.70
2023-11-26T04:11:51.992Z,-0.73
2023-11-26T04:15:41.621Z,-0.74
2023-11-26T04:19:24.681Z,-0.74
2023-11-26T04:23:26.449Z,-0.72
2023-11-26T04:27:14.952Z,-0.69
2023-11-26T04:31:15.721Z,-0.72
2023-11-26T04:35:04.279Z,-0.78
2023-11-26T04:38:53.362Z,-0.79
2023-11-26T04:42:36.232Z,-0.76
2023-11-26T04:46:17.666Z,-0.72
2023-11-26T04:49:59.134Z,-0.68
2023-11-26T04:53:47.868Z,-0.65
2023-11-26T04:57:35.263Z,-0.64
2023-11-26T05:01:38.125Z,-0.62
2023-11-26T05:05:26.667Z,-0.61
2023-11-26T05:09:13.518Z,-0.58
2023-11-26T05:13:17.313Z,-0.57
2023-11-26T05:21:34.682Z,-0.60
2023-11-26T05:25:39.617Z,-0.60
2023-11-26T05:29:00.463Z,-0.61
2023-11-26T05:32:50.135Z,-0.63
2023-11-26T05:36:32.080Z,-0.64
2023-11-26T05:40:06.208Z,-0.65
2023-11-26T05:44:45.640Z,-0.62
2023-11-26T05:48:08.391Z,-0.61
2023-11-26T05:51:57.076Z,-0.61
2023-11-26T05:55:49.113Z,-0.60
2023-11-26T05:59:38.101Z,-0.61
2023-11-26T06:03:25.289Z,-0.62
2023-11-26T06:07:13.828Z,-0.61
2023-11-26T06:10:47.474Z,-0.61
2023-11-26T06:13:29.561Z,-0.57
2023-11-26T06:16:21.609Z,-0.55
2023-11-26T06:19:23.227Z,-0.53
2023-11-26T06:21:56.901Z,-0.52
2023-11-26T06:25:09.200Z,-0.50
2023-11-26T06:28:57.714Z,-0.46
2023-11-26T06:32:07.839Z,-0.42
2023-11-26T06:35:23.128Z,-0.38
2023-11-26T06:38:45.761Z,-0.37
2023-11-26T06:42:11.923Z,-0.37
2023-11-26T06:45:24.981Z,-0.34
2023-11-26T06:48:35.918Z,-0.34
2023-11-26T06:52:21.441Z,-0.30
2023-11-26T06:56:01.305Z,-0.27
2023-11-26T06:59:06.625Z,-0.27
2023-11-26T07:02:45.544Z,-0.27
2023-11-26T07:06:03.570Z,-0.26
2023-11-26T07:09:26.210Z,-0.24
2023-11-26T07:12:38.616Z,-0.20
2023-11-26T07:16:04.765Z,-0.16
2023-11-26T07:19:37.570Z,-0.12
2023-11-26T07:22:35.204Z,-0.10
2023-11-26T07:25:52.157Z,-0.10
2023-11-26T07:29:12.387Z,-0.07
2023-11-26T07:32:42.740Z,-0.04
2023-11-26T07:36:23.885Z,-0.02
2023-11-26T07:39:40.534Z,0.03
2023-11-26T07:42:41.919Z,0.07
2023-11-26T07:46:19.278Z,0.08
2023-11-26T07:49:31.641Z,0.08
2023-11-26T07:52:44.094Z,0.10
2023-11-26T07:55:35.822Z,0.13
2023-11-26T07:59:09.478Z,0.17
2023-11-26T08:02:38.480Z,0.23
2023-11-26T08:06:08.887Z,0.24
2023-11-26T08:09:22.977Z,0.26
2023-11-26T08:12:33.379Z,0.28
2023-11-26T08:15:43.233Z,0.30
2023-11-26T08:19:08.717Z,0.33
2023-11-26T08:22:41.617Z,0.37
2023-11-26T08:26:06.457Z,0.39
2023-11-26T08:30:01.333Z,0.40
2023-11-26T08:33:49.707Z,0.41
2023-11-26T08:37:28.142Z,0.43
2023-11-26T08:40:26.739Z,0.45
2023-11-26T08:44:05.577Z,0.43
2023-11-26T08:47:21.387Z,0.44
2023-11-26T08:50:48.500Z,0.46
2023-11-26T08:54:21.735Z,0.46
2023-11-26T08:57:58.883Z,0.45
2023-11-26T09:01:22.450Z,0.45
2023-11-26T09:05:09.266Z,0.42
2023-11-26T09:08:37.436Z,0.43
2023-11-26T09:11:58.245Z,0.47
2023-11-26T09:14:57.388Z,0.52
2023-11-26T09:18:27.742Z,0.57
2023-11-26T09:22:12.533Z,0.58
2023-11-26T09:25:47.342Z,0.59
2023-11-26T09:29:33.504Z,0.62
2023-11-26T09:32:52.496Z,0.67
2023-11-26T09:36:42.274Z,0.70
2023-11-26T09:40:17.089Z,0.71
2023-11-26T09:43:36.444Z,0.70
2023-11-26T09:47:07.437Z,0.69
2023-11-26T09:50:20.231Z,0.66
2023-11-26T09:53:58.903Z,0.64
2023-11-26T09:57:05.819Z,0.65
2023-11-26T10:00:25.023Z,0.63
2023-11-26T10:04:06.787Z,0.62
2023-11-26T10:07:53.404Z,0.63
2023-11-26T10:11:41.558Z,0.64
2023-11-26T10:15:14.373Z,0.62
2023-11-26T10:18:35.220Z,0.61
2023-11-26T10:22:00.724Z,0.62
2023-11-26T10:25:43.960Z,0.64
2023-11-26T10:29:39.416Z,0.67
2023-11-26T10:33:00.924Z,0.71
2023-11-26T10:36:13.640Z,0.72
2023-11-26T10:39:55.929Z,0.70
2023-11-26T10:43:21.942Z,0.68
2023-11-26T10:47:06.995Z,0.66
2023-11-26T10:50:23.589Z,0.66
2023-11-26T10:53:52.272Z,0.67
2023-11-26T10:57:16.586Z,0.70
2023-11-26T11:00:49.266Z,0.73
2023-11-26T11:04:11.079Z,0.76
2023-11-26T11:07:33.950Z,0.75
2023-11-26T11:11:13.533Z,0.71
2023-11-26T11:14:54.838Z,0.68
2023-11-26T11:18:43.719Z,0.66
2023-11-26T11:22:16.030Z,0.59
2023-11-26T11:26:03.573Z,0.56
2023-11-26T11:29:28.802Z,0.53
2023-11-26T11:32:58.542Z,0.52
2023-11-26T11:36:35.256Z,0.52
2023-11-26T11:40:24.152Z,0.54
2023-11-26T11:43:38.870Z,0.56
2023-11-26T11:46:53.967Z,0.55
2023-11-26T11:50:23.457Z,0.54
2023-11-26T11:54:02.367Z,0.53
2023-11-26T11:57:26.920Z,0.50
2023-11-26T12:00:52.809Z,0.47
2023-11-26T12:04:40.007Z,0.45
2023-11-26T12:07:57.795Z,0.47
2023-11-26T12:11:19.611Z,0.49
2023-11-26T12:14:43.971Z,0.53
2023-11-26T12:18:02.011Z,0.58
2023-11-26T12:21:53.636Z,0.62
2023-11-26T12:25:18.592Z,0.62
2023-11-26T12:29:09.018Z,0.58
2023-11-26T12:32:29.960Z,0.55
2023-11-26T12:35:40.270Z,0.52
2023-11-26T12:39:01.068Z,0.51
2023-11-26T12:42:12.384Z,0.49
2023-11-26T12:45:15.912Z,0.46
2023-11-26T12:48:39.678Z,0.47
2023-11-26T12:51:55.024Z,0.49
2023-11-26T12:55:24.046Z,0.52
2023-11-26T12:58:57.818Z,0.54
2023-11-26T13:02:42.834Z,0.55
2023-11-26T13:06:10.920Z,0.54
2023-11-26T13:09:26.092Z,0.51
2023-11-26T13:13:00.514Z,0.46
2023-11-26T13:16:45.162Z,0.42
2023-11-26T13:20:33.456Z,0.41
2023-11-26T13:24:02.810Z,0.41
2023-11-26T13:27:50.690Z,0.40
2023-11-26T13:31:14.417Z,0.41
2023-11-26T13:35:02.361Z,0.42
2023-11-26T13:38:38.881Z,0.43
2023-11-26T13:42:19.844Z,0.43
2023-11-26T13:45:51.144Z,0.39
2023-11-26T13:49:35.111Z,0.36
2023-11-26T13:53:20.343Z,0.30
2023-11-26T13:56:56.275Z,0.29
2023-11-26T14:00:23.684Z,0.30
2023-11-26T14:03:48.431Z,0.33
2023-11-26T14:06:59.789Z,0.36
2023-11-26T14:10:34.071Z,0.36
2023-11-26T14:13:56.954Z,0.33
2023-11-26T14:17:08.442Z,0.29
2023-11-26T14:20:35.452Z,0.26
2023-11-26T14:23:40.266Z,0.22
2023-11-26T14:27:12.854Z,0.20
2023-11-26T14:30:05.680Z,0.21
2023-11-26T14:33:07.611Z,0.23
2023-11-26T14:36:20.341Z,0.26
2023-11-26T14:39:43.468Z,0.28
2023-11-26T14:43:06.456Z,0.29
2023-11-26T14:46:31.358Z,0.28
2023-11-26T14:50:03.121Z,0.27
2023-11-26T14:53:30.093Z,0.24
2023-11-26T14:57:08.029Z,0.25
2023-11-26T15:00:23.903Z,0.31
2023-11-26T15:03:33.499Z,0.34
2023-11-26T15:07:06.593Z,0.35
2023-11-26T15:10:55.104Z,0.33
2023-11-26T15:14:22.667Z,0.33
2023-11-26T15:17:57.941Z,0.30
2023-11-26T15:21:42.778Z,0.28
2023-11-26T15:24:52.776Z,0.24
2023-11-26T15:27:38.799Z,0.24
2023-11-26T15:31:07.635Z,0.24
2023-11-26T15:34:38.469Z,0.28
2023-11-26T15:38:16.069Z,0.33
2023-11-26T15:41:38.764Z,0.39
2023-11-26T15:44:45.404Z,0.48
2023-11-26T15:48:03.829Z,0.49
2023-11-26T15:51:26.723Z,0.43
2023-11-26T15:54:54.173Z,0.37
2023-11-26T15:58:41.665Z,0.30
2023-11-26T16:02:01.931Z,0.25
2023-11-26T16:05:16.199Z,0.25
2023-11-26T16:08:14.514Z,0.29
2023-11-26T16:11:42.790Z,0.31
2023-11-26T16:14:56.441Z,0.32
2023-11-26T16:18:30.334Z,0.33
2023-11-26T16:22:08.478Z,0.31
2023-11-26T16:25:25.919Z,0.29
2023-11-26T16:29:27.211Z,0.26
2023-11-26T16:32:53.361Z,0.22
2023-11-26T16:36:34.788Z,0.18
2023-11-26T16:40:26.046Z,0.20
2023-11-26T16:44:14.585Z,0.23
2023-11-26T16:47:42.947Z,0.26
2023-11-26T16:51:31.567Z,0.26
2023-11-26T16:54:55.663Z,0.19
2023-11-26T16:58:13.631Z,0.12
2023-11-26T17:01:40.598Z,0.08
2023-11-26T17:05:07.614Z,0.08
2023-11-26T17:08:35.900Z,0.09
2023-11-26T17:11:41.544Z,0.07
2023-11-26T17:15:08.107Z,0.07
2023-11-26T17:18:45.042Z,0.06
2023-11-26T17:22:22.309Z,0.05
2023-11-26T17:25:42.537Z,0.05
2023-11-26T17:28:49.420Z,0.03
2023-11-26T17:31:39.476Z,0.04
2023-11-26T17:35:08.172Z,0.02
2023-11-26T17:38:14.649Z,0.03
2023-11-26T17:41:22.040Z,0.02
2023-11-26T17:44:04.708Z,0.02
2023-11-26T17:47:33.018Z,0.02
2023-11-26T17:50:48.044Z,0.00
2023-11-26T17:54:29.572Z,-0.05
2023-11-26T17:58:00.001Z,-0.09
2023-11-26T18:01:43.770Z,-0.07
2023-11-26T18:04:49.646Z,-0.05
2023-11-26T18:08:40.124Z,-0.04
2023-11-26T18:11:59.361Z,-0.04
2023-11-26T18:15:30.500Z,-0.05
2023-11-26T18:19:02.155Z,-0.08
2023-11-26T18:22:16.757Z,-0.11
2023-11-26T18:25:59.267Z,-0.14
2023-11-26T18:29:30.898Z,-0.11
2023-11-26T18:32:29.399Z,-0.10
2023-11-26T18:35:39.084Z,-0.07
2023-11-26T18:38:38.088Z,-0.03
2023-11-26T18:41:05.983Z,-0.03
2023-11-26T18:43:43.625Z,-0.04
2023-11-26T18:46:37.592Z,-0.05
2023-11-26T18:49:20.678Z,-0.07
2023-11-26T18:52:18.842Z,-0.08
2023-11-26T18:55:45.069Z,-0.09
2023-11-26T18:59:05.858Z,-0.09
2023-11-26T19:01:51.621Z,-0.08
2023-11-26T19:04:58.571Z,-0.08
2023-11-26T19:07:54.872Z,-0.06
2023-11-26T19:11:19.431Z,-0.05
2023-11-26T19:14:34.860Z,-0.05
2023-11-26T19:18:02.977Z,-0.05
2023-11-26T19:21:22.054Z,-0.07
2023-11-26T19:24:43.726Z,-0.08
2023-11-26T19:28:03.213Z,-0.10
2023-11-26T19:31:02.039Z,-0.10
2023-11-26T19:34:29.375Z,-0.07
2023-11-26T19:37:12.654Z,-0.02
2023-11-26T19:40:38.114Z,0.02
2023-11-26T19:43:40.345Z,-0.01
2023-11-26T19:47:05.776Z,0.24
2023-11-26T19:50:16.427Z,0.40
2023-11-26T19:52:47.190Z,0.51
2023-11-26T19:55:15.066Z,0.39
2023-11-26T19:58:13.848Z,0.35
2023-11-26T20:01:32.101Z,0.39
2023-11-26T20:04:32.077Z,0.37
2023-11-26T20:07:33.879Z,0.35
2023-11-26T20:10:42.348Z,0.31
2023-11-26T20:13:51.927Z,0.35
2023-11-26T20:17:16.825Z,0.37
2023-11-26T20:20:06.598Z,0.33
2023-11-26T20:23:26.094Z,0.14
2023-11-26T20:26:40.149Z,-0.53
2023-11-26T20:29:34.590Z,-0.65
2023-11-26T20:32:30.950Z,-0.58
2023-11-26T20:34:58.936Z,-0.72
2023-11-26T20:37:39.431Z,-0.82
2023-11-26T20:40:16.536Z,-0.85
2023-11-26T20:43:06.309Z,-0.89
2023-11-26T20:45:41.128Z,-0.91
2023-11-26T20:48:12.934Z,-0.92
2023-11-26T20:51:03.078Z,-0.96
2023-11-26T20:53:34.280Z,-0.97
2023-11-26T20:56:52.179Z,-1.00
2023-11-26T20:59:36.376Z,-1.01
2023-11-26T21:02:07.106Z,-1.06
2023-11-26T21:04:43.102Z,-1.09
2023-11-26T21:07:11.175Z,-1.12
2023-11-26T21:09:54.219Z,-1.15
2023-11-26T21:12:31.903Z,-1.17
2023-11-26T21:15:00.324Z,-1.19
2023-11-26T21:17:28.014Z,-1.23
2023-11-26T21:20:02.127Z,-1.24
2023-11-26T21:22:30.203Z,-1.26
2023-11-26T21:25:01.202Z,-1.29
2023-11-26T21:27:38.512Z,-1.29
2023-11-26T21:30:37.648Z,-1.33
2023-11-26T21:33:08.303Z,-1.36
2023-11-26T21:35:35.980Z,-1.40
2023-11-26T21:38:03.586Z,-1.43
2023-11-26T21:40:53.417Z,-1.46
2023-11-26T21:43:28.861Z,-1.47
2023-11-26T21:46:09.657Z,-1.47
2023-11-26T21:48:50.433Z,-1.45
2023-11-26T21:51:43.117Z,-1.47
2023-11-26T21:54:57.322Z,-1.47
2023-11-26T21:58:01.002Z,-1.47
2023-11-26T22:01:25.491Z,-1.48
2023-11-26T22:04:48.693Z,-1.49
2023-11-26T22:07:31.191Z,-1.51
2023-11-26T22:10:13.239Z,-1.52
2023-11-26T22:13:04.391Z,-1.53
2023-11-26T22:15:42.084Z,-1.58
2023-11-26T22:18:23.495Z,-1.62
2023-11-26T22:21:37.724Z,-1.64
2023-11-26T22:24:28.212Z,-1.66
2023-11-26T22:27:24.064Z,-1.70
2023-11-26T22:30:08.613Z,-1.73
2023-11-26T22:32:48.417Z,-1.78
2023-11-26T22:35:56.826Z,-1.82
2023-11-26T22:38:49.037Z,-1.84
2023-11-26T22:41:56.066Z,-1.84
2023-11-26T22:45:09.867Z,-1.88
2023-11-26T22:48:19.876Z,-1.90
2023-11-26T22:51:14.934Z,-1.93
2023-11-26T22:53:59.227Z,-1.94
2023-11-26T22:56:29.659Z,-1.95
2023-11-26T22:59:46.093Z,-1.95
2023-11-26T23:02:59.438Z,-1.93
2023-11-26T23:05:58.186Z,-1.93
2023-11-26T23:08:50.478Z,-1.95
2023-11-26T23:11:36.654Z,-1.96
2023-11-26T23:15:04.502Z,-1.98
2023-11-26T23:18:28.223Z,-2.03
2023-11-26T23:22:07.120Z,-2.07
2023-11-26T23:25:24.803Z,-2.11
2023-11-26T23:29:05.028Z,-2.13
2023-11-26T23:32:39.014Z,-2.12
2023-11-26T23:35:51.793Z,-2.10
2023-11-26T23:38:56.579Z,-2.07
2023-11-26T23:41:45.640Z,-2.06
2023-11-26T23:44:52.260Z,-2.06
2023-11-26T23:48:33.926Z,-2.05
2023-11-26T23:52:17.433Z,-2.05
2023-11-26T23:55:48.004Z,-2.06
2023-11-26T23:59:26.639Z,-2.07
